Search for airport 
image banner adimage banner ad
image banner ad

FQVL - Vilankulo / National

Located in , Mozambique

ICAO - FQVL, IATA - VNX

Data provided by Airmate  

General information

Coordinates: S22°0'60" E35°19'0"
Elevation is 46 feet MSL.
 
View others Airports in Inhambane Province

Operational data

Open for public use
Current time UTC:
Current local time:
Weather
METAR: FQVL 211700Z 18016KT 9999 FEW020 28/21 Q1011 NOSIG
TAF: TAF FQVL 211000Z 2112/2212 16012KT 9999 SCT020 BKN025 TX32/2113Z TN24/2203Z BECMG 2115/2117 16010G20KT BECMG 2200/2202 22014KT PROB30 TEMPO 2203/2206 5000 -TSRA FEW025CB
View NOTAMs / SUP AIP / TFR affecting this airport [VIEW]
Communications frequencies: [VIEW]

Runways:

RWY identifierQFULength (ft)Width (ft)SurfaceLDA (ft)
1089°246175ASP
28246175
17482398
35482398

Airport contact information

Address: Mozambique

Satellite view of FQVL